Time;durP1;ratioP1;P1;durP2;ratioP2;P2;SDS_P1;SDS_P2;PMS_P1;PMS_P2;Temp;Humidity;BMP_temperature;BMP_pressure;BME280_temperature;BME280_humidity;BME280_pressure;Samples;Min_cycle;Max_cycle;Signal;HPM_P1;HPM_P2
2023/04/29 00:00:22;;;;;;;1.40;1.30;;;18.30;46.50;;;;;;5031204;28;20704;-62
2023/04/29 00:02:47;;;;;;;1.37;1.10;;;18.30;46.50;;;;;;5027447;28;20882;-62
2023/04/29 00:05:13;;;;;;;1.60;1.50;;;18.20;46.40;;;;;;5026016;28;20284;-62
2023/04/29 00:07:38;;;;;;;1.30;1.20;;;18.30;46.60;;;;;;5034787;28;20222;-66
2023/04/29 00:10:05;;;;;;;1.33;1.23;;;18.30;46.50;;;;;;5036063;28;20259;-63
2023/04/29 00:12:32;;;;;;;1.40;1.30;;;18.30;46.60;;;;;;5032000;28;20309;-63
2023/04/29 00:14:58;;;;;;;1.67;1.57;;;18.30;46.50;;;;;;5035053;28;20437;-62
2023/04/29 00:17:24;;;;;;;1.70;1.60;;;18.30;46.50;;;;;;5033681;28;21021;-66
2023/04/29 00:19:49;;;;;;;1.23;1.13;;;18.30;46.60;;;;;;5034950;28;20436;-64
2023/04/29 00:22:15;;;;;;;1.37;1.27;;;18.30;46.50;;;;;;5032869;28;20218;-64
2023/04/29 00:24:40;;;;;;;1.60;1.50;;;18.30;46.60;;;;;;5029083;28;20249;-67
2023/04/29 00:27:06;;;;;;;1.47;1.37;;;18.30;46.60;;;;;;5033525;28;20301;-67
2023/04/29 00:29:31;;;;;;;1.90;1.73;;;18.20;46.50;;;;;;5034597;28;20325;-62
2023/04/29 00:31:57;;;;;;;1.90;1.80;;;18.20;46.50;;;;;;5038644;28;20304;-62
2023/04/29 00:34:23;;;;;;;1.80;1.70;;;18.30;46.60;;;;;;5034447;28;20223;-65
2023/04/29 00:36:49;;;;;;;2.03;1.93;;;18.30;46.60;;;;;;5033740;28;20698;-66
2023/04/29 00:39:14;;;;;;;2.30;2.20;;;18.30;46.60;;;;;;5031902;28;20358;-63
2023/04/29 00:41:40;;;;;;;2.13;2.03;;;18.20;46.50;;;;;;5029709;28;20225;-63
2023/04/29 00:44:06;;;;;;;1.90;1.80;;;18.30;46.60;;;;;;5034424;28;20223;-62
2023/04/29 00:46:32;;;;;;;2.30;2.20;;;18.30;46.60;;;;;;5034281;28;20647;-71
2023/04/29 00:48:59;;;;;;;1.77;1.67;;;18.30;46.60;;;;;;5033991;28;20441;-65
2023/04/29 00:51:25;;;;;;;2.20;2.10;;;18.30;46.60;;;;;;5024610;28;20954;-66
2023/04/29 00:53:51;;;;;;;2.10;2.00;;;18.30;46.60;;;;;;5027659;28;21130;-66
2023/04/29 00:56:19;;;;;;;2.50;2.30;;;18.30;46.60;;;;;;5035408;28;20422;-62
2023/04/29 00:58:48;;;;;;;2.27;2.17;;;18.30;46.70;;;;;;5036542;28;20337;-63
2023/04/29 01:01:18;;;;;;;2.40;2.20;;;18.30;46.60;;;;;;5036771;28;20531;-63
2023/04/29 01:03:44;;;;;;;4.80;3.00;;;18.30;46.60;;;;;;5034292;28;20459;-69
2023/04/29 01:06:29;;;;;;;2.30;2.20;;;18.30;46.60;;;;;;5030343;28;20442;-61
2023/04/29 01:09:09;;;;;;;2.60;2.40;;;18.30;46.60;;;;;;5028629;28;20430;-65
2023/04/29 01:11:48;;;;;;;2.37;2.17;;;18.20;46.50;;;;;;5030624;28;20563;-63
2023/04/29 01:14:13;;;;;;;2.40;2.20;;;18.30;46.60;;;;;;5034571;28;20438;-65
2023/04/29 01:16:50;;;;;;;2.40;2.20;;;18.20;46.50;;;;;;5031984;28;20445;-63
2023/04/29 01:19:39;;;;;;;2.63;2.43;;;18.30;46.60;;;;;;5034459;28;21074;-63
2023/04/29 01:22:05;;;;;;;2.70;2.50;;;18.20;46.50;;;;;;5032790;28;20430;-66
2023/04/29 01:24:30;;;;;;;2.50;2.30;;;18.20;46.60;;;;;;5034422;28;20431;-66
2023/04/29 01:27:04;;;;;;;9.63;3.10;;;18.20;46.60;;;;;;5033921;28;20252;-64
2023/04/29 01:29:42;;;;;;;3.10;2.90;;;18.20;46.60;;;;;;5030616;28;20222;-66
2023/04/29 01:32:22;;;;;;;2.60;2.40;;;18.20;46.60;;;;;;5032179;28;20478;-68
2023/04/29 01:35:16;;;;;;;2.67;2.50;;;18.20;46.50;;;;;;5028833;28;20505;-63
2023/04/29 01:38:03;;;;;;;3.03;2.83;;;18.20;46.60;;;;;;5025382;28;20528;-63
2023/04/29 01:40:58;;;;;;;2.47;2.27;;;18.20;46.60;;;;;;5035429;28;20446;-66
2023/04/29 01:43:27;;;;;;;2.50;2.30;;;18.20;46.60;;;;;;5016434;28;20423;-63
2023/04/29 01:45:55;;;;;;;2.87;2.67;;;18.20;46.60;;;;;;5032707;28;20874;-65
2023/04/29 01:48:21;;;;;;;3.23;3.03;;;18.20;46.60;;;;;;5035692;28;20431;-63
2023/04/29 01:50:47;;;;;;;2.90;2.70;;;18.20;46.60;;;;;;5017281;28;21030;-65
2023/04/29 01:53:12;;;;;;;2.70;2.53;;;18.20;46.60;;;;;;5032057;28;21267;-62
2023/04/29 01:55:38;;;;;;;3.07;2.87;;;18.20;46.60;;;;;;5033543;28;20218;-65
2023/04/29 01:58:03;;;;;;;3.10;2.90;;;18.20;47.40;;;;;;5019418;28;20234;-62
2023/04/29 02:00:29;;;;;;;2.60;2.40;;;18.20;46.60;;;;;;5030633;28;20222;-63
2023/04/29 02:02:54;;;;;;;2.90;2.70;;;18.20;46.60;;;;;;5032252;28;20218;-64
2023/04/29 02:05:20;;;;;;;2.97;2.77;;;18.20;46.60;;;;;;5028705;28;20225;-62
2023/04/29 02:07:46;;;;;;;3.13;2.93;;;18.20;46.70;;;;;;5034944;28;20252;-63
2023/04/29 02:10:12;;;;;;;2.93;2.73;;;18.20;46.70;;;;;;5033251;28;20222;-67
2023/04/29 02:12:38;;;;;;;3.40;3.20;;;18.20;46.70;;;;;;5022539;28;20437;-63
2023/04/29 02:15:04;;;;;;;3.10;2.90;;;18.20;46.60;;;;;;5030591;28;20674;-63
2023/04/29 02:17:29;;;;;;;2.77;2.57;;;18.20;46.60;;;;;;5033354;28;20234;-66
2023/04/29 02:19:55;;;;;;;3.17;2.93;;;18.20;46.60;;;;;;5027912;28;20273;-64
2023/04/29 02:22:20;;;;;;;3.00;2.80;;;18.20;46.90;;;;;;5027288;28;21031;-65
2023/04/29 02:24:46;;;;;;;3.37;3.13;;;18.20;46.70;;;;;;5031917;28;20673;-65
2023/04/29 02:27:12;;;;;;;3.33;3.13;;;18.20;46.60;;;;;;5031114;28;20351;-65
2023/04/29 02:29:37;;;;;;;3.37;3.17;;;18.20;46.60;;;;;;5032479;28;20221;-67
2023/04/29 02:32:03;;;;;;;3.33;3.13;;;18.20;46.60;;;;;;5028700;28;20219;-70
2023/04/29 02:34:30;;;;;;;2.90;2.70;;;18.20;46.70;;;;;;5031135;28;20238;-64
2023/04/29 02:36:56;;;;;;;4.17;3.87;;;18.20;46.70;;;;;;5034561;28;20237;-67
2023/04/29 02:39:22;;;;;;;3.70;3.50;;;18.20;46.70;;;;;;5034725;28;20455;-65
2023/04/29 02:41:48;;;;;;;3.37;3.17;;;18.20;46.70;;;;;;5026484;28;20223;-69
2023/04/29 02:44:13;;;;;;;4.00;3.70;;;18.20;46.60;;;;;;5027585;28;20694;-67
2023/04/29 02:46:44;;;;;;;3.73;3.50;;;18.20;46.60;;;;;;5021351;28;20239;-62
2023/04/29 02:49:10;;;;;;;4.70;4.07;;;18.20;46.70;;;;;;5034055;28;20939;-66
2023/04/29 02:51:35;;;;;;;3.77;3.47;;;18.20;46.70;;;;;;5026571;28;20443;-63
2023/04/29 02:54:01;;;;;;;3.47;3.27;;;18.20;46.60;;;;;;5027733;28;20732;-69
2023/04/29 02:56:27;;;;;;;3.57;3.27;;;18.20;46.70;;;;;;5030577;28;20233;-63
2023/04/29 02:58:52;;;;;;;3.37;3.17;;;18.20;46.70;;;;;;5018231;28;20314;-62
2023/04/29 03:01:17;;;;;;;3.83;3.63;;;18.20;46.70;;;;;;5026021;28;20241;-62
2023/04/29 03:03:43;;;;;;;3.70;3.40;;;18.20;46.70;;;;;;5035791;28;20230;-65
2023/04/29 03:06:09;;;;;;;3.73;3.53;;;18.20;46.70;;;;;;5022219;28;20230;-64
2023/04/29 03:08:34;;;;;;;3.20;3.00;;;18.20;46.70;;;;;;5029844;28;20222;-64
2023/04/29 03:11:00;;;;;;;3.53;3.23;;;18.20;46.70;;;;;;5037927;28;20217;-64
2023/04/29 03:13:25;;;;;;;3.30;2.97;;;18.20;46.60;;;;;;5036244;28;20223;-63
2023/04/29 03:15:51;;;;;;;3.17;2.97;;;18.20;46.70;;;;;;5030810;28;20224;-65
2023/04/29 03:18:17;;;;;;;3.63;3.40;;;18.20;46.70;;;;;;5035983;28;20284;-66
2023/04/29 03:20:42;;;;;;;3.83;3.53;;;18.20;46.70;;;;;;5031375;28;20230;-62
2023/04/29 03:23:07;;;;;;;4.00;3.70;;;18.20;46.70;;;;;;5034595;28;20382;-66
2023/04/29 03:25:33;;;;;;;3.50;3.30;;;18.20;46.70;;;;;;5034364;28;20244;-65
2023/04/29 03:27:59;;;;;;;3.03;2.80;;;18.20;46.60;;;;;;5034102;28;20217;-64
2023/04/29 03:30:24;;;;;;;3.00;2.80;;;18.20;46.60;;;;;;5036807;28;20226;-63
2023/04/29 03:32:50;;;;;;;5.67;3.20;;;18.20;46.70;;;;;;5034505;28;20218;-65
2023/04/29 03:35:15;;;;;;;2.90;2.70;;;18.20;46.70;;;;;;5037983;28;20225;-63
2023/04/29 03:37:43;;;;;;;3.20;3.00;;;18.20;46.70;;;;;;5034469;28;20253;-64
2023/04/29 03:40:09;;;;;;;3.97;3.67;;;18.20;46.70;;;;;;5034808;28;20785;-62
2023/04/29 03:42:35;;;;;;;2.83;2.63;;;18.20;46.70;;;;;;5030648;28;20463;-64
2023/04/29 03:45:00;;;;;;;3.03;2.83;;;18.20;46.70;;;;;;5015120;28;20451;-63
2023/04/29 03:47:26;;;;;;;3.80;3.50;;;18.20;46.70;;;;;;5032399;28;20223;-65
2023/04/29 03:49:52;;;;;;;2.97;2.77;;;18.20;46.70;;;;;;5033885;28;20786;-64
2023/04/29 03:52:18;;;;;;;2.87;2.67;;;18.20;46.70;;;;;;5036522;28;20225;-64
2023/04/29 03:54:43;;;;;;;3.10;2.90;;;18.20;46.70;;;;;;5034690;28;20288;-64
2023/04/29 03:57:09;;;;;;;3.07;2.87;;;18.20;46.70;;;;;;5034461;28;20231;-64
2023/04/29 03:59:35;;;;;;;3.23;3.03;;;18.20;46.70;;;;;;5023901;28;20211;-62
2023/04/29 04:02:00;;;;;;;2.93;2.73;;;18.20;46.70;;;;;;5028624;28;20221;-67
2023/04/29 04:04:25;;;;;;;3.20;3.00;;;18.20;46.70;;;;;;5025684;28;20310;-63
2023/04/29 04:06:51;;;;;;;3.10;2.90;;;18.20;46.70;;;;;;5035797;28;20248;-64
2023/04/29 04:09:19;;;;;;;3.33;3.03;;;18.20;46.70;;;;;;5027407;28;20613;-62
2023/04/29 04:11:45;;;;;;;3.27;3.07;;;18.20;46.70;;;;;;5024437;28;20257;-71
2023/04/29 04:14:11;;;;;;;3.33;3.13;;;18.20;46.70;;;;;;5024761;28;20422;-67
2023/04/29 04:16:37;;;;;;;2.93;2.73;;;18.20;46.80;;;;;;5034011;28;20232;-63
2023/04/29 04:19:03;;;;;;;3.40;3.20;;;18.20;46.80;;;;;;5034952;28;21080;-64
2023/04/29 04:21:29;;;;;;;2.70;2.50;;;18.20;46.80;;;;;;5032581;28;20245;-65
2023/04/29 04:23:54;;;;;;;2.33;2.23;;;18.20;46.70;;;;;;5031730;28;20233;-65
2023/04/29 04:26:20;;;;;;;3.17;2.93;;;18.20;46.70;;;;;;5034397;28;20426;-62
2023/04/29 04:28:46;;;;;;;3.67;3.40;;;18.20;46.70;;;;;;5032609;28;20225;-66
2023/04/29 04:31:14;;;;;;;3.23;3.03;;;18.20;46.70;;;;;;5033495;28;20221;-67
2023/04/29 04:33:40;;;;;;;3.40;3.20;;;18.20;46.80;;;;;;5026156;28;20222;-66
2023/04/29 04:36:06;;;;;;;2.80;2.60;;;18.20;46.70;;;;;;5031433;28;20454;-65
2023/04/29 04:38:32;;;;;;;3.03;2.83;;;18.20;46.70;;;;;;5031427;28;20233;-67
2023/04/29 04:40:58;;;;;;;3.47;3.20;;;18.20;46.80;;;;;;5030396;28;20430;-63
2023/04/29 04:43:23;;;;;;;2.83;2.63;;;18.20;46.70;;;;;;5033664;28;20460;-69
2023/04/29 04:45:49;;;;;;;2.50;2.30;;;18.20;46.70;;;;;;5033299;28;20217;-63
2023/04/29 04:48:15;;;;;;;3.27;3.03;;;18.20;46.70;;;;;;5030199;28;20776;-66
2023/04/29 04:50:40;;;;;;;3.43;3.23;;;18.20;46.70;;;;;;5034097;28;20229;-65
2023/04/29 04:53:06;;;;;;;2.90;2.70;;;18.20;46.70;;;;;;5031677;28;20249;-65
2023/04/29 04:55:35;;;;;;;2.63;2.43;;;18.20;46.80;;;;;;5026642;28;20240;-62
2023/04/29 04:58:01;;;;;;;2.30;2.20;;;18.20;46.70;;;;;;5035307;28;20276;-63
2023/04/29 05:00:26;;;;;;;2.90;2.70;;;18.20;46.70;;;;;;5036161;28;20549;-68
2023/04/29 05:02:52;;;;;;;2.77;2.57;;;18.20;47.50;;;;;;5035975;28;20690;-64
2023/04/29 05:05:17;;;;;;;3.20;3.00;;;18.20;46.70;;;;;;5035690;28;20231;-63
2023/04/29 05:07:43;;;;;;;2.90;2.70;;;18.20;46.70;;;;;;5036626;28;20225;-63
2023/04/29 05:10:09;;;;;;;2.67;2.47;;;18.20;46.70;;;;;;5036014;28;20230;-63
2023/04/29 05:12:35;;;;;;;2.67;2.47;;;18.20;46.70;;;;;;5018105;28;20238;-63
2023/04/29 05:15:01;;;;;;;2.70;2.50;;;18.20;46.70;;;;;;5026209;28;20438;-64
2023/04/29 05:17:27;;;;;;;3.30;2.73;;;18.30;46.80;;;;;;5035150;28;20238;-68
2023/04/29 05:19:53;;;;;;;2.33;2.13;;;18.30;46.80;;;;;;5020896;28;20459;-66
2023/04/29 05:22:18;;;;;;;2.30;2.20;;;18.20;46.70;;;;;;5033735;28;20706;-62
2023/04/29 05:24:44;;;;;;;2.63;2.43;;;18.30;46.80;;;;;;5032415;28;20967;-63
2023/04/29 05:27:09;;;;;;;2.40;2.20;;;18.30;46.80;;;;;;5032824;28;20254;-66
2023/04/29 05:29:35;;;;;;;2.17;2.07;;;18.30;46.80;;;;;;5036586;28;20221;-67
2023/04/29 05:32:01;;;;;;;2.60;2.40;;;18.30;46.80;;;;;;5034497;28;20237;-62
2023/04/29 05:34:26;;;;;;;2.60;2.40;;;18.30;46.80;;;;;;5031932;28;20214;-68
2023/04/29 05:36:52;;;;;;;2.13;2.03;;;18.30;46.80;;;;;;5029534;28;20304;-62
2023/04/29 05:39:17;;;;;;;2.50;2.40;;;18.30;46.80;;;;;;5030314;28;20231;-63
2023/04/29 05:41:43;;;;;;;2.13;2.00;;;18.30;46.80;;;;;;5033895;28;20218;-65
2023/04/29 05:44:08;;;;;;;3.30;2.23;;;18.30;46.80;;;;;;5032192;28;20222;-63
2023/04/29 05:46:34;;;;;;;2.53;2.33;;;18.30;46.80;;;;;;5027613;28;20225;-63
2023/04/29 05:49:00;;;;;;;2.03;1.93;;;18.30;46.80;;;;;;5023731;28;20222;-66
2023/04/29 05:51:27;;;;;;;2.10;2.00;;;18.30;46.80;;;;;;5031929;28;20676;-66
2023/04/29 05:53:53;;;;;;;2.27;2.17;;;18.30;47.50;;;;;;5033775;28;20233;-66
2023/04/29 05:56:18;;;;;;;2.13;2.03;;;18.30;46.80;;;;;;5033435;28;21236;-65
2023/04/29 05:58:44;;;;;;;2.07;1.97;;;18.30;46.70;;;;;;5033741;28;20820;-62
2023/04/29 06:01:10;;;;;;;2.50;2.40;;;18.30;46.80;;;;;;5034906;28;20217;-63
2023/04/29 06:03:35;;;;;;;2.30;2.20;;;18.30;46.70;;;;;;5019721;28;20219;-65
2023/04/29 06:06:01;;;;;;;2.27;2.07;;;18.30;46.80;;;;;;5021142;28;20218;-65
2023/04/29 06:08:27;;;;;;;2.13;2.03;;;18.30;46.80;;;;;;5030701;28;20284;-68
2023/04/29 06:10:53;;;;;;;2.13;2.03;;;18.30;46.80;;;;;;5019991;28;20265;-63
2023/04/29 06:13:18;;;;;;;2.40;2.20;;;18.30;46.80;;;;;;5028527;28;20557;-63
2023/04/29 06:15:44;;;;;;;2.43;2.00;;;18.30;46.80;;;;;;5027985;28;20577;-63
2023/04/29 06:18:09;;;;;;;2.47;2.37;;;18.30;46.80;;;;;;5017898;28;20567;-64
2023/04/29 06:20:35;;;;;;;2.07;1.97;;;18.30;46.80;;;;;;5026416;28;20230;-61
2023/04/29 06:23:00;;;;;;;2.40;2.30;;;18.30;46.80;;;;;;5024146;28;20237;-63
2023/04/29 06:25:26;;;;;;;3.03;2.67;;;18.30;46.90;;;;;;5032221;28;20225;-71
2023/04/29 06:27:51;;;;;;;1.93;1.83;;;18.30;46.80;;;;;;5023985;28;20244;-66
2023/04/29 06:30:17;;;;;;;2.30;2.10;;;18.30;46.80;;;;;;5032407;28;20218;-61
2023/04/29 06:32:43;;;;;;;2.17;2.07;;;18.30;46.80;;;;;;5022671;28;20222;-63
2023/04/29 06:35:09;;;;;;;1.90;1.80;;;18.30;46.80;;;;;;5033063;28;20243;-64
2023/04/29 06:37:34;;;;;;;2.17;2.07;;;18.30;46.70;;;;;;5029593;28;20445;-61
2023/04/29 06:40:00;;;;;;;2.00;1.90;;;18.40;46.80;;;;;;5027155;28;20640;-61
2023/04/29 06:42:26;;;;;;;2.07;1.93;;;18.40;46.70;;;;;;5021018;28;20967;-63
2023/04/29 06:44:51;;;;;;;2.17;2.00;;;18.40;46.70;;;;;;5030616;28;20768;-66
2023/04/29 06:47:17;;;;;;;1.90;1.80;;;18.40;46.70;;;;;;5033657;28;20482;-62
2023/04/29 06:49:42;;;;;;;2.17;2.07;;;18.40;46.60;;;;;;5028120;28;20632;-63
2023/04/29 06:52:08;;;;;;;2.30;2.10;;;18.40;46.70;;;;;;5027602;28;20305;-61
2023/04/29 06:54:34;;;;;;;2.10;2.00;;;18.40;46.60;;;;;;5025720;28;20226;-66
2023/04/29 06:56:59;;;;;;;2.43;2.30;;;18.40;46.70;;;;;;5025716;28;20557;-63
2023/04/29 06:59:25;;;;;;;2.20;2.00;;;18.40;46.70;;;;;;5027638;28;20609;-66
2023/04/29 07:01:51;;;;;;;2.00;1.90;;;18.40;46.70;;;;;;5028649;28;20249;-66
2023/04/29 07:04:16;;;;;;;2.07;1.83;;;18.40;46.60;;;;;;5026722;28;20317;-63
2023/04/29 07:06:45;;;;;;;2.20;2.00;;;18.40;46.60;;;;;;5026526;28;20218;-61
2023/04/29 07:09:12;;;;;;;1.80;1.70;;;18.40;46.60;;;;;;5032663;28;20234;-63
2023/04/29 07:11:38;;;;;;;2.30;2.07;;;18.40;46.60;;;;;;5022681;28;20479;-63
2023/04/29 07:14:04;;;;;;;1.80;1.70;;;18.40;46.70;;;;;;5028280;28;20585;-63
2023/04/29 07:16:29;;;;;;;1.93;1.70;;;18.40;46.70;;;;;;5029518;28;20675;-64
2023/04/29 07:18:55;;;;;;;1.93;1.83;;;18.40;46.70;;;;;;5031322;28;20350;-63
2023/04/29 07:21:20;;;;;;;2.03;1.93;;;18.40;46.70;;;;;;5030904;28;20218;-63
2023/04/29 07:23:46;;;;;;;2.13;2.03;;;18.40;46.70;;;;;;5022292;28;20706;-67
2023/04/29 07:26:14;;;;;;;1.80;1.70;;;18.40;46.70;;;;;;5022808;28;20305;-62
2023/04/29 07:28:40;;;;;;;2.20;2.00;;;18.40;46.70;;;;;;5031698;28;20540;-62
2023/04/29 07:31:06;;;;;;;3.00;1.80;;;18.40;46.70;;;;;;5022569;28;20489;-64
2023/04/29 07:33:32;;;;;;;1.83;1.73;;;18.40;46.80;;;;;;5030470;28;22080;-63
2023/04/29 07:35:58;;;;;;;1.70;1.60;;;18.40;46.70;;;;;;5030684;28;20268;-62
2023/04/29 07:38:23;;;;;;;2.00;1.90;;;18.40;46.70;;;;;;5028059;28;21011;-64
2023/04/29 07:40:49;;;;;;;2.43;1.80;;;18.40;46.70;;;;;;5028153;28;20298;-62
2023/04/29 07:43:14;;;;;;;1.67;1.57;;;18.40;46.70;;;;;;5028300;28;20264;-69
2023/04/29 07:45:40;;;;;;;1.90;1.80;;;18.40;46.80;;;;;;5022482;28;20276;-65
2023/04/29 07:48:05;;;;;;;1.77;1.67;;;18.40;46.80;;;;;;5023291;28;20228;-63
2023/04/29 07:50:35;;;;;;;2.50;2.40;;;18.40;46.80;;;;;;5028420;28;20221;-67
2023/04/29 07:53:01;;;;;;;1.77;1.67;;;18.40;46.80;;;;;;5028497;28;20248;-62
2023/04/29 07:55:28;;;;;;;2.00;1.90;;;18.40;46.80;;;;;;5033492;28;20441;-64
2023/04/29 07:57:55;;;;;;;1.77;1.67;;;18.30;46.70;;;;;;5031735;28;20483;-63
2023/04/29 08:00:22;;;;;;;2.20;2.10;;;18.30;46.70;;;;;;5027471;28;20433;-61
2023/04/29 08:02:51;;;;;;;2.30;2.20;;;18.40;46.80;;;;;;5026883;28;20914;-62
2023/04/29 08:05:18;;;;;;;2.10;2.00;;;18.40;46.80;;;;;;5014467;28;20482;-64
2023/04/29 08:07:43;;;;;;;2.00;1.90;;;18.30;46.70;;;;;;5029298;28;20454;-67
2023/04/29 08:10:09;;;;;;;2.00;1.90;;;18.30;47.00;;;;;;5031040;28;20558;-61
2023/04/29 08:12:35;;;;;;;1.97;1.87;;;18.30;46.80;;;;;;5031895;28;20343;-63
2023/04/29 08:15:00;;;;;;;2.80;1.80;;;18.30;46.90;;;;;;5020475;28;20313;-70
2023/04/29 08:17:26;;;;;;;5.53;2.10;;;18.30;46.80;;;;;;5016518;28;20277;-68
2023/04/29 08:19:51;;;;;;;2.70;1.83;;;18.30;46.80;;;;;;5015967;28;20253;-68
2023/04/29 08:22:17;;;;;;;2.67;1.90;;;18.30;46.80;;;;;;5026471;28;20229;-68
2023/04/29 08:24:44;;;;;;;5.40;2.00;;;18.30;46.80;;;;;;5027700;28;20627;-68
2023/04/29 08:27:09;;;;;;;1.90;1.80;;;18.30;46.80;;;;;;5032678;28;20308;-70
2023/04/29 08:29:35;;;;;;;4.57;2.23;;;18.30;46.90;;;;;;5014320;28;20448;-70
2023/04/29 08:32:01;;;;;;;5.63;1.90;;;18.30;46.80;;;;;;5030140;28;20308;-70
2023/04/29 08:34:27;;;;;;;2.50;2.00;;;18.30;46.90;;;;;;5025658;28;20218;-69
2023/04/29 08:36:52;;;;;;;3.73;2.30;;;18.30;46.90;;;;;;5022980;28;20218;-69
2023/04/29 08:39:18;;;;;;;3.70;1.93;;;18.30;46.90;;;;;;5031957;28;21647;-67
2023/04/29 08:41:48;;;;;;;2.00;1.80;;;18.30;46.90;;;;;;5023646;28;20235;-64
2023/04/29 08:44:16;;;;;;;2.37;1.70;;;18.30;46.90;;;;;;5031018;28;20220;-70
2023/04/29 08:46:45;;;;;;;2.23;2.10;;;18.30;46.90;;;;;;5029658;28;20475;-69
2023/04/29 08:49:12;;;;;;;1.87;1.40;;;18.30;46.80;;;;;;5029251;28;20531;-70
2023/04/29 08:51:37;;;;;;;3.83;1.80;;;18.30;47.00;;;;;;5018163;28;20599;-70
2023/04/29 08:54:03;;;;;;;3.50;2.00;;;18.30;46.90;;;;;;5020927;28;20871;-67
2023/04/29 08:56:30;;;;;;;2.97;1.83;;;18.30;46.90;;;;;;5014828;28;20738;-67
2023/04/29 08:59:01;;;;;;;1.90;1.80;;;18.30;46.90;;;;;;5032446;28;20899;-67
2023/04/29 09:01:27;;;;;;;2.07;1.63;;;18.30;46.90;;;;;;5016594;28;20458;-68
2023/04/29 09:04:13;;;;;;;2.50;1.70;;;18.30;46.90;;;;;;5019970;28;20454;-68
2023/04/29 09:06:38;;;;;;;2.43;1.87;;;18.30;46.90;;;;;;5026062;28;20422;-67
2023/04/29 09:09:05;;;;;;;2.17;1.97;;;18.30;46.90;;;;;;5027980;28;20471;-67
2023/04/29 09:11:31;;;;;;;1.60;1.50;;;18.30;46.90;;;;;;5022079;28;20222;-69
2023/04/29 09:14:01;;;;;;;1.90;1.80;;;18.30;47.00;;;;;;5026078;28;20421;-69
2023/04/29 09:16:30;;;;;;;2.13;1.90;;;18.30;46.90;;;;;;5019558;28;20429;-66
2023/04/29 09:18:56;;;;;;;3.00;1.83;;;18.30;47.00;;;;;;5021002;28;20472;-66
2023/04/29 09:21:23;;;;;;;1.77;1.67;;;18.30;46.90;;;;;;5017026;28;20558;-66
2023/04/29 09:23:51;;;;;;;2.30;2.00;;;18.30;46.80;;;;;;5029162;28;20784;-67
2023/04/29 09:26:17;;;;;;;1.80;1.70;;;18.30;46.90;;;;;;5029908;28;20961;-72
2023/04/29 09:28:43;;;;;;;10.50;2.17;;;18.30;46.90;;;;;;5027935;28;20468;-68
2023/04/29 09:31:11;;;;;;;1.97;1.87;;;18.30;47.00;;;;;;5014258;28;20222;-72
2023/04/29 09:33:50;;;;;;;3.87;2.00;;;18.30;46.90;;;;;;5013857;28;20441;-67
2023/04/29 09:36:46;;;;;;;1.77;1.67;;;18.30;46.90;;;;;;5024452;28;20549;-68
2023/04/29 09:39:14;;;;;;;2.13;2.00;;;18.30;46.80;;;;;;5008254;28;20553;-67
2023/04/29 09:41:40;;;;;;;2.70;2.10;;;18.30;46.90;;;;;;5026685;28;20439;-71
2023/04/29 09:44:07;;;;;;;4.23;1.90;;;18.30;46.90;;;;;;5042447;28;20989;-68
2023/04/29 09:46:35;;;;;;;2.13;2.03;;;18.30;46.90;;;;;;5025057;28;20455;-66
2023/04/29 09:49:03;;;;;;;2.03;1.93;;;18.30;46.90;;;;;;5034470;28;20988;-69
2023/04/29 09:51:31;;;;;;;1.80;1.70;;;18.30;46.80;;;;;;5020676;28;20444;-67
2023/04/29 09:54:00;;;;;;;1.87;1.77;;;18.30;46.80;;;;;;5018551;28;20490;-67
2023/04/29 09:56:29;;;;;;;2.20;2.07;;;18.30;46.90;;;;;;5028580;28;21005;-67
2023/04/29 09:58:56;;;;;;;2.53;2.03;;;18.30;46.80;;;;;;5032483;28;20451;-67
2023/04/29 10:01:22;;;;;;;2.07;1.97;;;18.30;46.90;;;;;;5029045;28;20974;-68
2023/04/29 10:03:50;;;;;;;2.40;2.20;;;18.30;46.90;;;;;;5032127;28;20990;-66
2023/04/29 10:06:17;;;;;;;2.03;1.90;;;18.30;46.90;;;;;;5031269;28;21859;-68
2023/04/29 10:08:45;;;;;;;2.80;1.90;;;18.30;46.90;;;;;;5036477;28;20459;-68
2023/04/29 10:11:11;;;;;;;2.80;2.33;;;18.30;46.90;;;;;;5031225;28;20451;-67
2023/04/29 10:13:41;;;;;;;2.10;2.00;;;18.30;46.90;;;;;;5023666;28;20495;-70
2023/04/29 10:16:28;;;;;;;2.10;2.00;;;18.30;46.90;;;;;;5023778;28;20458;-68
2023/04/29 10:18:55;;;;;;;2.10;2.00;;;18.30;47.60;;;;;;5016271;28;20434;-66
2023/04/29 10:21:30;;;;;;;2.40;2.20;;;18.30;46.90;;;;;;5036861;28;20422;-67
2023/04/29 10:23:57;;;;;;;2.53;2.00;;;18.30;46.80;;;;;;5024671;28;20420;-67
2023/04/29 10:26:29;;;;;;;2.23;1.90;;;18.30;46.90;;;;;;5032583;28;20937;-66
2023/04/29 10:28:58;;;;;;;2.10;2.00;;;18.30;46.90;;;;;;5034406;28;20460;-70
2023/04/29 10:31:29;;;;;;;2.53;2.33;;;18.30;46.90;;;;;;5032871;28;20538;-67
2023/04/29 10:33:57;;;;;;;3.93;2.10;;;18.30;46.80;;;;;;5033317;28;20438;-68
2023/04/29 10:36:27;;;;;;;2.00;1.90;;;18.30;46.80;;;;;;5037688;28;20446;-66
2023/04/29 10:38:57;;;;;;;3.00;2.30;;;18.30;46.80;;;;;;5040050;28;20463;-67
2023/04/29 10:41:29;;;;;;;2.77;2.57;;;18.30;46.80;;;;;;5039574;28;20868;-67
2023/04/29 10:43:58;;;;;;;2.30;2.20;;;18.30;46.80;;;;;;5039547;28;20431;-67
2023/04/29 10:46:25;;;;;;;2.07;1.97;;;18.30;46.90;;;;;;5034706;28;20406;-67
2023/04/29 10:48:59;;;;;;;2.37;2.17;;;18.30;46.80;;;;;;5038832;28;20445;-67
2023/04/29 10:51:33;;;;;;;2.53;2.43;;;18.30;46.80;;;;;;5036560;28;20441;-66
2023/04/29 12:15:16;;;;;;;3.93;3.13;;;18.30;47.00;;;;;;5002156;28;20564;-68
2023/04/29 12:17:42;;;;;;;3.07;2.87;;;18.30;47.00;;;;;;5027600;28;20476;-70
2023/04/29 12:20:09;;;;;;;3.80;2.90;;;18.30;47.00;;;;;;5026125;28;20701;-70
2023/04/29 12:22:35;;;;;;;3.50;3.30;;;18.30;47.00;;;;;;5030756;28;20444;-66
2023/04/29 12:25:04;;;;;;;4.07;3.37;;;18.30;47.80;;;;;;5009474;28;20814;-67
2023/04/29 12:27:31;;;;;;;3.20;2.90;;;18.30;47.00;;;;;;5032617;28;20462;-67
2023/04/29 12:29:57;;;;;;;3.17;2.97;;;18.30;47.00;;;;;;5023704;28;20788;-68
2023/04/29 12:32:24;;;;;;;3.10;2.80;;;18.30;46.90;;;;;;5034807;28;20733;-70
2023/04/29 12:34:53;;;;;;;2.73;2.53;;;18.30;47.00;;;;;;5035446;28;20809;-71
2023/04/29 12:37:22;;;;;;;3.47;3.17;;;18.30;47.00;;;;;;5030574;28;20638;-69
2023/04/29 12:39:49;;;;;;;3.40;3.10;;;18.30;46.90;;;;;;5038071;28;20437;-71
2023/04/29 12:42:18;;;;;;;3.30;3.10;;;18.30;46.90;;;;;;5035304;28;20475;-72
2023/04/29 12:44:46;;;;;;;3.33;3.13;;;18.30;47.00;;;;;;5020272;28;20491;-75
2023/04/29 12:47:12;;;;;;;5.17;3.70;;;18.30;46.90;;;;;;5031723;28;20418;-72
2023/04/29 12:49:42;;;;;;;3.43;3.23;;;18.30;46.90;;;;;;5036345;28;20541;-70
2023/04/29 12:52:09;;;;;;;4.23;3.83;;;18.30;46.90;;;;;;5033789;28;20925;-71
2023/04/29 12:54:36;;;;;;;4.47;4.20;;;18.30;46.90;;;;;;5033035;28;20477;-69
2023/04/29 12:57:02;;;;;;;6.40;3.23;;;18.40;47.00;;;;;;5031761;28;20438;-69
2023/04/29 12:59:28;;;;;;;4.00;3.80;;;18.30;46.90;;;;;;5034070;28;20430;-69
2023/04/29 13:01:53;;;;;;;3.80;3.60;;;18.40;47.00;;;;;;5029681;28;20448;-69
2023/04/29 13:04:18;;;;;;;4.77;4.37;;;18.40;47.00;;;;;;5025409;28;20226;-70
2023/04/29 13:06:44;;;;;;;3.83;3.63;;;18.40;47.00;;;;;;5028553;28;20221;-68
2023/04/29 13:09:10;;;;;;;3.70;3.40;;;18.40;47.00;;;;;;5032487;28;20961;-68
2023/04/29 13:11:37;;;;;;;3.93;3.63;;;18.40;47.00;;;;;;5032340;28;20230;-69
2023/04/29 13:14:05;;;;;;;3.93;3.50;;;18.40;47.00;;;;;;5030609;28;20478;-72
2023/04/29 13:16:34;;;;;;;4.27;3.93;;;18.40;47.00;;;;;;5033881;28;20593;-70
2023/04/29 13:19:00;;;;;;;3.97;3.77;;;18.40;47.00;;;;;;5026727;28;21140;-71
2023/04/29 13:21:26;;;;;;;3.77;3.47;;;18.40;47.00;;;;;;5034804;28;20467;-68
2023/04/29 13:23:55;;;;;;;4.23;3.50;;;18.40;47.00;;;;;;5029365;28;20513;-69
2023/04/29 13:26:22;;;;;;;3.70;3.50;;;18.40;47.00;;;;;;5026782;28;20434;-69
2023/04/29 13:28:48;;;;;;;4.50;4.20;;;18.40;47.00;;;;;;5036726;28;20565;-70
2023/04/29 13:31:13;;;;;;;4.50;3.77;;;18.40;46.90;;;;;;5028901;28;20426;-68
2023/04/29 13:33:39;;;;;;;4.30;4.00;;;18.40;46.90;;;;;;5032192;28;20222;-68
2023/04/29 13:36:05;;;;;;;3.90;3.70;;;18.40;47.00;;;;;;5030683;28;20716;-69
2023/04/29 13:38:31;;;;;;;4.20;4.00;;;18.40;47.00;;;;;;5020471;28;20253;-69
2023/04/29 13:40:56;;;;;;;4.77;4.20;;;18.40;47.00;;;;;;5026673;28;20218;-68
2023/04/29 13:43:22;;;;;;;4.83;4.53;;;18.40;47.00;;;;;;5020150;28;20438;-69
2023/04/29 13:45:47;;;;;;;4.50;4.20;;;18.40;47.00;;;;;;5031015;28;20227;-68
2023/04/29 13:48:13;;;;;;;4.60;4.30;;;18.40;46.90;;;;;;5029034;28;20219;-69
2023/04/29 13:50:40;;;;;;;4.60;4.30;;;18.40;47.00;;;;;;5032596;28;20217;-69
2023/04/29 13:53:06;;;;;;;4.40;4.10;;;18.40;47.00;;;;;;5025632;28;20215;-69
2023/04/29 13:55:33;;;;;;;5.50;5.13;;;18.40;47.00;;;;;;5029585;28;21000;-68
2023/04/29 13:57:59;;;;;;;4.60;4.30;;;18.40;47.00;;;;;;5017952;28;20474;-72
2023/04/29 14:00:25;;;;;;;3.90;3.70;;;18.40;47.00;;;;;;5024550;28;20969;-69
2023/04/29 14:02:51;;;;;;;5.63;4.50;;;18.40;47.00;;;;;;5021448;28;20247;-71
2023/04/29 14:05:16;;;;;;;4.63;4.23;;;18.40;47.00;;;;;;5021938;28;21049;-68
2023/04/29 14:07:42;;;;;;;5.30;4.80;;;18.40;47.00;;;;;;5025694;28;20372;-67